Latest METARs, TAFs and NOTAMs for TTPP


---------------------------------------------------------------------------
	(OBSERVATIONS)
TTPP 260100Z 00000KT 9999 FEW018 26/23 Q1014 NOSIG=
TTPP 260000Z 00000KT 9999 FEW018 26/23 Q1013 NOSIG=
TTPP 252300Z 10007KT 9999 FEW020 27/22 Q1012 NOSIG=
---------------------------------------------------------------------------
	(TERMINAL AREA FORECAST)
TTPP 252200Z 2600/2624 07005KT 9999 FEW018
    TEMPO 2609/2618 5000 SHRA FEW015TCU BKN016
    BECMG 2612/2614 10012G25KT SCT020=
---------------------------------------------------------------------------
	(NOTAMS)


TTPP A0244/18 INSTRUMENT APPROACH PROCEDURE "NDB/ILS RWY 10"
    COMPLETELY WITHDRAWN. REFER TO EASTERN CARIBBEAN AIP PAGE
    AD 2.10-1-30. 06 MAR 19:00 2018 UNTIL PERM. CREATED: 06 MAR
    19:29 2018

TTPP A0245/18 INSTRUMENT APPROACH PROCEDURE "NDB RWY 10" COMPLETELY
    WITHDRAWN. REFER TO EASTERN CARIBBEAN AIP PAGE AD 2.10-1-29.
    06 MAR 19:00 2018 UNTIL PERM. CREATED: 06 MAR 19:35 2018

TTPP A0450/18 MODEL ACFT DISPLAY AT FREDERICK SETTLEMENT WITHIN
    A RADIUS OF 1KM CENTRED ON 103538N0612337W. CTN ADZ. SFC
    - 400FT, SR-SS, 20 APR 15:15 2018 UNTIL 20 JUL 15:15 2018
    ESTIMATED. CREATED: 20 APR 15:17 2018

TTPP A0465/18 PARKING POSITION 12 ON SOUTH APRON CLOSED 24 APR
    23:08 UNTIL 24 JUL 03:59

TTPP A0532/18 ALL ACFT TO BE TOWED IN AND TOWED OUT OF GATES
    1 AND 2 ON THE SOUTH APRON. 02 MAY 22:25 2018 UNTIL 01 AUG
    03:59 2018. CREATED: 02 MAY 22:27 2018

TTPP F0016/07 [DEFENSE ENERGY SUPPORT CENTER ADVISORY] FUEL AVAILABILITY
    NOT AVAILABLE: CONTRACTOR PLACED ON QUALITY HOLD DUE TO NONCOMPLIANCE
    OF SAMPLE SUBMISSION. 12 JUL 20:18 2020 UNTIL 01 AUG 21:18
    2020

---------------------------------------------------------------------------